createdAt,value
2023-05-01T00:01:54.125Z,7.23
2023-05-01T00:04:22.398Z,11.47
2023-05-01T00:06:49.454Z,6.17
2023-05-01T00:09:16.439Z,5.47
2023-05-01T00:11:43.321Z,7.10
2023-05-01T00:14:10.190Z,6.37
2023-05-01T00:16:37.227Z,8.03
2023-05-01T00:19:05.504Z,7.37
2023-05-01T00:21:32.402Z,7.43
2023-05-01T00:23:59.268Z,8.07
2023-05-01T00:26:30.348Z,4.83
2023-05-01T00:28:58.193Z,7.03
2023-05-01T00:31:26.004Z,7.50
2023-05-01T00:33:53.178Z,5.57
2023-05-01T00:36:21.510Z,7.60
2023-05-01T00:38:48.396Z,6.37
2023-05-01T00:41:15.388Z,6.87
2023-05-01T00:43:42.671Z,7.23
2023-05-01T00:46:10.119Z,7.73
2023-05-01T00:48:37.408Z,6.63
2023-05-01T00:51:08.250Z,5.57
2023-05-01T00:53:36.525Z,6.33
2023-05-01T00:56:04.257Z,5.77
2023-05-01T00:58:31.386Z,8.03
2023-05-01T01:00:58.534Z,5.43
2023-05-01T01:03:25.639Z,6.97
2023-05-01T01:06:01.160Z,6.90
2023-05-01T01:08:38.080Z,5.63
2023-05-01T01:11:21.562Z,5.73
2023-05-01T01:14:03.750Z,6.40
2023-05-01T01:16:41.579Z,6.63
2023-05-01T01:19:54.049Z,8.47
2023-05-01T01:22:27.622Z,6.23
2023-05-01T01:25:43.729Z,6.77
2023-05-01T01:28:30.911Z,5.97
2023-05-01T01:31:17.604Z,5.23
2023-05-01T01:34:02.273Z,7.80
2023-05-01T01:36:40.816Z,6.20
2023-05-01T01:39:27.008Z,6.30
2023-05-01T01:41:58.049Z,7.40
2023-05-01T01:44:34.684Z,7.20
2023-05-01T01:47:08.177Z,6.13
2023-05-01T01:49:42.482Z,8.63
2023-05-01T01:52:14.168Z,7.33
2023-05-01T01:54:48.757Z,5.57
2023-05-01T01:57:19.346Z,5.07
2023-05-01T01:59:48.388Z,5.90
2023-05-01T02:02:19.875Z,6.97
2023-05-01T02:04:50.418Z,8.30
2023-05-01T02:07:20.188Z,6.83
2023-05-01T02:09:50.772Z,7.17
2023-05-01T02:12:19.880Z,6.87
2023-05-01T02:14:51.365Z,6.30
2023-05-01T02:17:21.133Z,5.37
2023-05-01T02:19:53.161Z,5.20
2023-05-01T02:22:22.667Z,8.20
2023-05-01T02:24:50.123Z,5.13
2023-05-01T02:27:23.574Z,5.67
2023-05-01T02:29:52.168Z,5.67
2023-05-01T02:32:19.896Z,7.67
2023-05-01T02:34:46.821Z,5.70
2023-05-01T02:37:16.004Z,4.53
2023-05-01T02:39:43.278Z,10.83
2023-05-01T02:42:12.610Z,6.93
2023-05-01T02:44:48.001Z,7.87
2023-05-01T02:47:20.313Z,5.23
2023-05-01T02:49:48.959Z,3.90
2023-05-01T02:52:20.341Z,7.80
2023-05-01T02:54:47.925Z,6.23
2023-05-01T02:57:17.017Z,4.57
2023-05-01T02:59:44.167Z,7.40
2023-05-01T03:02:11.473Z,6.33
2023-05-01T03:04:38.540Z,6.93
2023-05-01T03:07:05.650Z,6.77
2023-05-01T03:09:34.041Z,7.30
2023-05-01T03:12:01.059Z,5.83
2023-05-01T03:14:28.549Z,7.80
2023-05-01T03:16:55.841Z,6.47
2023-05-01T03:19:22.825Z,5.03
2023-05-01T03:21:49.765Z,5.23
2023-05-01T03:24:16.649Z,6.50
2023-05-01T03:26:45.020Z,4.00
2023-05-01T03:29:13.229Z,4.90
2023-05-01T03:31:40.129Z,6.03
2023-05-01T03:34:07.245Z,6.67
2023-05-01T03:36:34.352Z,6.47
2023-05-01T03:39:01.262Z,4.70
2023-05-01T03:41:28.179Z,4.97
2023-05-01T03:43:56.446Z,4.90
2023-05-01T03:46:24.105Z,5.70
2023-05-01T03:48:50.964Z,5.83
2023-05-01T03:51:18.026Z,4.70
2023-05-01T03:53:45.213Z,6.83
2023-05-01T03:56:12.111Z,6.60
2023-05-01T03:58:38.998Z,7.37
2023-05-01T04:01:07.215Z,7.60
2023-05-01T04:03:34.244Z,5.80
2023-05-01T04:06:01.537Z,9.53
2023-05-01T04:08:28.474Z,6.53
2023-05-01T04:10:55.358Z,8.63
2023-05-01T04:13:22.234Z,8.33
2023-05-01T04:15:49.213Z,7.17
2023-05-01T04:18:17.493Z,5.80
2023-05-01T04:20:44.630Z,7.53
2023-05-01T04:23:12.612Z,8.37
2023-05-01T04:25:39.545Z,7.47
2023-05-01T04:28:06.478Z,6.13
2023-05-01T04:30:33.776Z,5.77
2023-05-01T04:33:01.770Z,9.30
2023-05-01T04:35:30.082Z,8.53
2023-05-01T04:37:57.032Z,6.17
2023-05-01T04:40:23.977Z,8.60
2023-05-01T04:42:50.840Z,5.93
2023-05-01T04:45:17.926Z,6.67
2023-05-01T04:47:44.900Z,7.80
2023-05-01T04:50:12.137Z,7.10
2023-05-01T04:52:40.600Z,5.67
2023-05-01T04:55:09.517Z,7.37
2023-05-01T04:57:36.581Z,4.13
2023-05-01T05:00:04.981Z,5.60
2023-05-01T05:02:32.144Z,6.03
2023-05-01T05:04:59.139Z,5.67
2023-05-01T05:07:26.038Z,8.43
2023-05-01T05:09:54.615Z,5.40
2023-05-01T05:12:21.843Z,6.10
2023-05-01T05:14:48.733Z,6.63
2023-05-01T05:17:15.701Z,5.57
2023-05-01T05:19:42.573Z,5.73
2023-05-01T05:22:09.513Z,8.20
2023-05-01T05:24:36.375Z,6.40
2023-05-01T05:27:07.055Z,9.40
2023-05-01T05:29:34.883Z,4.73
2023-05-01T05:32:02.028Z,4.87
2023-05-01T05:34:29.051Z,6.97
2023-05-01T05:36:55.937Z,6.90
2023-05-01T05:39:23.664Z,6.40
2023-05-01T05:41:53.600Z,6.97
2023-05-01T05:44:21.822Z,6.90
2023-05-01T05:46:48.784Z,9.20
2023-05-01T05:49:15.681Z,6.90
2023-05-01T05:51:42.664Z,7.63
2023-05-01T05:54:09.608Z,10.43
2023-05-01T05:56:36.480Z,5.80
2023-05-01T05:59:04.527Z,7.13
2023-05-01T06:01:32.900Z,5.47
2023-05-01T06:03:59.760Z,6.53
2023-05-01T06:06:27.573Z,5.40
2023-05-01T06:08:54.474Z,7.67
2023-05-01T06:11:21.990Z,8.70
2023-05-01T06:13:48.929Z,6.43
2023-05-01T06:16:15.873Z,7.60
2023-05-01T06:18:45.830Z,7.07
2023-05-01T06:21:13.282Z,5.63
2023-05-01T06:23:40.374Z,6.07
2023-05-01T06:26:07.996Z,5.63
2023-05-01T06:28:34.932Z,5.97
2023-05-01T06:31:01.845Z,6.33
2023-05-01T06:33:28.749Z,8.83
2023-05-01T06:35:59.689Z,6.90
2023-05-01T06:38:27.070Z,6.97
2023-05-01T06:40:54.140Z,6.00
2023-05-01T06:43:21.213Z,6.97
2023-05-01T06:45:48.065Z,6.40
2023-05-01T06:48:15.110Z,5.30
2023-05-01T06:50:42.032Z,7.77
2023-05-01T06:53:10.322Z,6.27
2023-05-01T06:55:37.203Z,4.13
2023-05-01T06:58:15.919Z,5.10
2023-05-01T07:00:50.724Z,4.73
2023-05-01T07:03:17.822Z,4.30
2023-05-01T07:05:44.830Z,5.07
2023-05-01T07:08:14.197Z,6.90
2023-05-01T07:10:42.316Z,8.90
2023-05-01T07:13:09.758Z,7.47
2023-05-01T07:15:37.120Z,5.57
2023-05-01T07:18:05.987Z,6.37
2023-05-01T07:20:34.416Z,5.50
2023-05-01T07:23:01.411Z,6.30
2023-05-01T07:25:29.870Z,6.03
2023-05-01T07:27:57.016Z,7.07
2023-05-01T07:30:24.176Z,5.47
2023-05-01T07:32:51.096Z,6.60
2023-05-01T07:35:18.226Z,6.47
2023-05-01T07:37:45.219Z,6.00
2023-05-01T07:40:12.420Z,6.67
2023-05-01T07:42:40.727Z,5.17
2023-05-01T07:45:09.123Z,4.63
2023-05-01T07:47:36.512Z,6.57
2023-05-01T07:50:04.360Z,3.70
2023-05-01T07:52:31.498Z,4.97
2023-05-01T07:54:58.461Z,4.67
2023-05-01T07:57:25.430Z,5.17
2023-05-01T07:59:56.725Z,4.23
2023-05-01T08:02:24.087Z,4.90
2023-05-01T08:04:51.570Z,5.10
2023-05-01T08:07:18.705Z,3.57
2023-05-01T08:09:46.420Z,5.63
2023-05-01T08:12:13.865Z,7.40
2023-05-01T08:14:40.739Z,5.53
2023-05-01T08:17:08.974Z,3.80
2023-05-01T08:19:35.988Z,7.17
2023-05-01T08:22:02.896Z,5.90
2023-05-01T08:24:29.905Z,4.90
2023-05-01T08:26:57.112Z,5.07
2023-05-01T08:29:24.077Z,6.17
2023-05-01T08:31:53.438Z,4.13
2023-05-01T08:34:22.713Z,6.67
2023-05-01T08:36:49.737Z,4.60
2023-05-01T08:39:16.793Z,4.27
2023-05-01T08:41:47.217Z,6.23
2023-05-01T08:44:16.601Z,4.63
2023-05-01T08:46:50.817Z,7.57
2023-05-01T08:49:22.018Z,4.20
2023-05-01T08:51:54.064Z,4.63
2023-05-01T08:54:21.984Z,5.33
2023-05-01T08:56:51.551Z,3.27
2023-05-01T08:59:20.496Z,3.53
2023-05-01T09:01:49.119Z,4.47
2023-05-01T09:04:17.613Z,6.30
2023-05-01T09:06:46.178Z,4.90
2023-05-01T09:09:13.139Z,5.40
2023-05-01T09:11:40.584Z,6.83
2023-05-01T09:14:08.517Z,3.60
2023-05-01T09:16:36.116Z,8.33
2023-05-01T09:19:03.389Z,4.47
2023-05-01T09:21:31.934Z,5.73
2023-05-01T09:24:00.225Z,4.90
2023-05-01T09:26:27.541Z,6.93
2023-05-01T09:28:58.366Z,4.63
2023-05-01T09:31:32.671Z,3.63
2023-05-01T09:34:02.659Z,4.27
2023-05-01T09:36:32.353Z,3.97
2023-05-01T09:39:02.540Z,5.33
2023-05-01T09:41:33.173Z,5.37
2023-05-01T09:44:01.921Z,3.73
2023-05-01T09:46:43.709Z,3.80
2023-05-01T09:49:10.715Z,4.33
2023-05-01T09:51:37.800Z,4.63
2023-05-01T09:54:18.231Z,10.20
2023-05-01T09:56:48.505Z,5.37
2023-05-01T09:59:18.194Z,5.90
2023-05-01T10:01:49.311Z,4.50
2023-05-01T10:04:16.585Z,3.80
2023-05-01T10:06:43.622Z,4.20
2023-05-01T10:09:17.337Z,5.43
2023-05-01T10:11:48.933Z,5.50
2023-05-01T10:14:16.250Z,3.70
2023-05-01T10:16:43.378Z,4.10
2023-05-01T10:19:11.031Z,4.43
2023-05-01T10:21:38.474Z,6.47
2023-05-01T10:24:07.260Z,3.83
2023-05-01T10:26:37.702Z,4.17
2023-05-01T10:29:05.164Z,3.93
2023-05-01T10:31:33.186Z,4.00
2023-05-01T10:34:02.049Z,3.50
2023-05-01T10:36:37.369Z,5.60
2023-05-01T10:39:04.945Z,6.00
2023-05-01T10:42:10.998Z,3.70
2023-05-01T10:44:38.186Z,5.97
2023-05-01T10:47:45.444Z,5.47
2023-05-01T10:50:15.472Z,3.93
2023-05-01T10:53:17.648Z,4.67
2023-05-01T10:55:46.863Z,5.87
2023-05-01T10:59:05.926Z,5.60
2023-05-01T11:01:34.861Z,6.70
2023-05-01T11:04:04.713Z,4.68
2023-05-01T11:06:32.710Z,4.85
2023-05-01T11:09:01.113Z,6.43
2023-05-01T11:11:49.835Z,3.70
2023-05-01T11:14:18.412Z,4.68
2023-05-01T11:16:46.812Z,6.10
2023-05-01T11:19:48.088Z,3.50
2023-05-01T11:22:15.516Z,2.93
2023-05-01T11:24:43.441Z,3.43
2023-05-01T11:27:14.455Z,5.57
2023-05-01T11:29:46.094Z,5.40
2023-05-01T11:32:24.181Z,5.20
2023-05-01T11:34:52.501Z,4.20
2023-05-01T11:37:19.602Z,3.42
2023-05-01T11:39:52.468Z,3.53
2023-05-01T11:42:22.638Z,5.00
2023-05-01T11:45:11.271Z,3.88
2023-05-01T11:47:38.473Z,4.05
2023-05-01T11:50:07.576Z,3.20
2023-05-01T11:52:44.176Z,4.38
2023-05-01T11:55:11.665Z,2.88
2023-05-01T11:57:49.852Z,3.95
2023-05-01T12:00:29.768Z,2.47
2023-05-01T12:03:03.099Z,3.67
2023-05-01T12:05:31.773Z,3.30
2023-05-01T12:08:14.392Z,4.65
2023-05-01T12:10:43.729Z,3.17
2023-05-01T12:13:13.501Z,3.20
2023-05-01T12:15:44.904Z,2.50
2023-05-01T12:18:14.166Z,3.05
2023-05-01T12:20:44.175Z,2.42
2023-05-01T12:23:13.738Z,3.47
2023-05-01T12:25:42.800Z,3.13
2023-05-01T12:28:13.017Z,2.92
2023-05-01T12:30:42.510Z,2.67
2023-05-01T12:33:15.014Z,2.53
2023-05-01T12:35:48.073Z,2.65
2023-05-01T12:38:17.515Z,2.90
2023-05-01T12:40:55.684Z,3.63
2023-05-01T12:43:30.686Z,2.63
2023-05-01T12:45:59.686Z,3.00
2023-05-01T12:48:29.783Z,2.50
2023-05-01T12:50:57.599Z,3.88
2023-05-01T12:53:27.619Z,3.63
2023-05-01T12:55:58.177Z,2.92
2023-05-01T12:58:36.337Z,2.70
2023-05-01T13:01:05.209Z,4.05
2023-05-01T13:03:34.029Z,2.90
2023-05-01T13:06:03.602Z,2.15
2023-05-01T13:08:32.817Z,2.13
2023-05-01T13:11:02.773Z,4.07
2023-05-01T13:13:31.761Z,2.60
2023-05-01T13:16:12.076Z,2.43
2023-05-01T13:18:47.446Z,3.77
2023-05-01T13:21:16.611Z,2.53
2023-05-01T13:23:54.035Z,2.03
2023-05-01T13:26:27.290Z,2.57
2023-05-01T13:28:55.418Z,2.00
2023-05-01T13:31:24.051Z,1.57
2023-05-01T13:33:53.391Z,2.33
2023-05-01T13:36:26.451Z,1.80
2023-05-01T13:38:56.827Z,3.77
2023-05-01T13:41:26.491Z,2.07
2023-05-01T13:43:56.279Z,3.10
2023-05-01T13:46:28.916Z,1.90
2023-05-01T13:48:57.598Z,3.23
2023-05-01T13:51:27.077Z,1.67
2023-05-01T13:53:56.130Z,2.10
2023-05-01T13:56:23.208Z,2.70
2023-05-01T13:58:50.695Z,1.47
2023-05-01T14:01:20.481Z,5.00
2023-05-01T14:03:49.829Z,2.40
2023-05-01T14:06:18.955Z,6.03
2023-05-01T14:08:47.978Z,1.50
2023-05-01T14:11:15.721Z,2.77
2023-05-01T14:13:44.965Z,3.83
2023-05-01T14:16:21.921Z,1.77
2023-05-01T14:18:52.844Z,1.77
2023-05-01T14:21:20.817Z,3.60
2023-05-01T14:23:48.023Z,3.20
2023-05-01T14:26:18.748Z,1.57
2023-05-01T14:28:47.853Z,2.00
2023-05-01T14:31:24.184Z,1.80
2023-05-01T14:33:57.782Z,1.90
2023-05-01T14:36:25.542Z,4.17
2023-05-01T14:38:56.422Z,3.03
2023-05-01T14:41:23.759Z,3.73
2023-05-01T14:43:53.721Z,2.53
2023-05-01T14:46:29.921Z,2.30
2023-05-01T14:48:59.510Z,1.50
2023-05-01T14:51:27.710Z,2.17
2023-05-01T14:53:54.820Z,3.73
2023-05-01T14:56:22.766Z,4.53
2023-05-01T14:58:50.006Z,3.80
2023-05-01T15:01:17.984Z,3.83
2023-05-01T15:03:45.464Z,2.23
2023-05-01T15:06:14.327Z,2.80
2023-05-01T15:08:41.470Z,3.33
2023-05-01T15:11:08.544Z,2.20
2023-05-01T15:13:36.486Z,2.23
2023-05-01T15:16:04.220Z,3.43
2023-05-01T15:18:31.358Z,2.40
2023-05-01T15:20:58.263Z,5.10
2023-05-01T15:23:27.628Z,4.73
2023-05-01T15:25:54.660Z,4.93
2023-05-01T15:28:21.641Z,4.03
2023-05-01T15:30:48.575Z,3.77
2023-05-01T15:33:18.822Z,3.80
2023-05-01T15:35:47.175Z,4.07
2023-05-01T15:38:14.198Z,5.57
2023-05-01T15:40:43.622Z,5.33
2023-05-01T15:43:10.483Z,3.87
2023-05-01T15:45:42.876Z,4.20
2023-05-01T15:48:11.779Z,3.93
2023-05-01T15:50:38.818Z,3.80
2023-05-01T15:53:05.985Z,5.30
2023-05-01T15:55:34.098Z,3.83
2023-05-01T15:58:02.793Z,5.13
2023-05-01T16:00:29.940Z,2.40
2023-05-01T16:02:56.992Z,3.70
2023-05-01T16:05:26.514Z,3.40
2023-05-01T16:07:56.072Z,4.33
2023-05-01T16:10:23.424Z,6.57
2023-05-01T16:12:50.956Z,4.30
2023-05-01T16:15:19.341Z,6.40
2023-05-01T16:17:46.763Z,4.63
2023-05-01T16:20:14.799Z,4.73
2023-05-01T16:22:43.357Z,9.17
2023-05-01T16:25:11.660Z,7.27
2023-05-01T16:27:41.389Z,4.43
2023-05-01T16:30:10.458Z,4.77
2023-05-01T16:32:41.042Z,3.87
2023-05-01T16:35:11.276Z,7.67
2023-05-01T16:37:39.454Z,6.53
2023-05-01T16:40:09.114Z,7.43
2023-05-01T16:42:38.300Z,6.33
2023-05-01T16:45:08.827Z,5.47
2023-05-01T16:47:36.178Z,5.77
2023-05-01T16:50:09.873Z,5.63
2023-05-01T16:52:36.993Z,7.67
2023-05-01T16:55:04.518Z,5.50
2023-05-01T16:57:31.472Z,8.47
2023-05-01T16:59:58.544Z,5.13
2023-05-01T17:02:25.765Z,7.93
2023-05-01T17:04:52.725Z,4.47
2023-05-01T17:07:27.826Z,6.37
2023-05-01T17:09:55.062Z,5.17
2023-05-01T17:12:23.381Z,7.10
2023-05-01T17:14:50.758Z,6.03
2023-05-01T17:17:17.819Z,5.27
2023-05-01T17:19:44.990Z,6.63
2023-05-01T17:22:12.075Z,11.73
2023-05-01T17:24:41.137Z,8.40
2023-05-01T17:27:08.128Z,6.00
2023-05-01T17:29:35.456Z,8.60
2023-05-01T17:32:04.365Z,7.03
2023-05-01T17:34:31.297Z,8.60
2023-05-01T17:36:58.256Z,4.33
2023-05-01T17:39:27.431Z,6.80
2023-05-01T17:41:55.697Z,5.90
2023-05-01T17:44:22.611Z,9.17
2023-05-01T17:46:49.540Z,6.67
2023-05-01T17:49:16.479Z,5.47
2023-05-01T17:51:45.075Z,4.93
2023-05-01T17:54:12.065Z,3.70
2023-05-01T17:56:39.008Z,5.20
2023-05-01T17:59:07.516Z,3.97
2023-05-01T18:01:35.271Z,4.03
2023-05-01T18:04:05.843Z,6.10
2023-05-01T18:06:33.123Z,6.97
2023-05-01T18:09:00.143Z,5.50
2023-05-01T18:11:27.951Z,4.70
2023-05-01T18:13:55.003Z,3.03
2023-05-01T18:16:24.549Z,4.07
2023-05-01T18:18:53.003Z,4.00
2023-05-01T18:21:19.914Z,4.83
2023-05-01T18:23:48.517Z,4.90
2023-05-01T18:26:16.530Z,3.17
2023-05-01T18:28:43.641Z,2.80
2023-05-01T18:31:10.527Z,3.83
2023-05-01T18:33:39.091Z,3.37
2023-05-01T18:36:06.397Z,3.93
2023-05-01T18:38:33.359Z,3.47
2023-05-01T18:41:00.405Z,3.30
2023-05-01T18:43:27.690Z,6.23
2023-05-01T18:45:54.643Z,8.20
2023-05-01T18:48:21.542Z,6.73
2023-05-01T18:51:06.812Z,4.73
2023-05-01T18:53:34.519Z,4.50
2023-05-01T18:56:01.537Z,2.80
2023-05-01T18:58:28.432Z,4.87
2023-05-01T19:00:55.679Z,4.80
2023-05-01T19:03:22.629Z,3.63
2023-05-01T19:05:50.972Z,3.83
2023-05-01T19:08:17.905Z,4.83
2023-05-01T19:10:44.831Z,3.40
2023-05-01T19:13:12.224Z,2.63
2023-05-01T19:15:39.100Z,3.23
2023-05-01T19:18:06.176Z,2.60
2023-05-01T19:20:33.126Z,4.67
2023-05-01T19:23:01.404Z,4.03
2023-05-01T19:25:29.328Z,3.57
2023-05-01T19:27:57.265Z,4.33
2023-05-01T19:30:24.621Z,3.43
2023-05-01T19:32:51.988Z,5.90
2023-05-01T19:35:19.015Z,4.47
2023-05-01T19:37:46.123Z,5.03
2023-05-01T19:40:15.924Z,4.50
2023-05-01T19:42:42.945Z,5.07
2023-05-01T19:45:10.411Z,3.40
2023-05-01T19:47:37.482Z,3.03
2023-05-01T19:50:05.604Z,4.17
2023-05-01T19:52:32.635Z,2.97
2023-05-01T19:55:03.976Z,5.03
2023-05-01T19:57:33.699Z,3.40
2023-05-01T20:00:01.237Z,5.03
2023-05-01T20:02:28.498Z,5.20
2023-05-01T20:04:55.861Z,4.87
2023-05-01T20:07:22.827Z,4.93
2023-05-01T20:09:50.154Z,3.53
2023-05-01T20:12:17.094Z,4.63
2023-05-01T20:14:45.370Z,4.40
2023-05-01T20:17:12.314Z,4.77
2023-05-01T20:19:39.920Z,4.83
2023-05-01T20:22:07.103Z,4.60
2023-05-01T20:24:34.008Z,4.00
2023-05-01T20:27:00.915Z,5.00
2023-05-01T20:29:28.099Z,3.17
2023-05-01T20:31:58.166Z,4.33
2023-05-01T20:34:25.177Z,4.40
2023-05-01T20:36:52.102Z,3.80
2023-05-01T20:39:19.114Z,3.83
2023-05-01T20:41:45.963Z,4.40
2023-05-01T20:44:12.905Z,5.03
2023-05-01T20:46:39.858Z,5.00
2023-05-01T20:49:09.960Z,4.57
2023-05-01T20:51:38.269Z,4.17
2023-05-01T20:54:05.174Z,4.10
2023-05-01T20:56:32.317Z,5.80
2023-05-01T20:59:00.246Z,3.47
2023-05-01T21:01:29.756Z,4.13
2023-05-01T21:03:58.491Z,3.83
2023-05-01T21:06:29.441Z,4.93
2023-05-01T21:08:56.351Z,6.50
2023-05-01T21:11:23.767Z,4.17
2023-05-01T21:13:51.158Z,5.43
2023-05-01T21:16:19.704Z,3.40
2023-05-01T21:18:46.840Z,5.80
2023-05-01T21:21:15.735Z,4.93
2023-05-01T21:23:48.897Z,5.27
2023-05-01T21:26:16.235Z,4.70
2023-05-01T21:28:43.587Z,4.73
2023-05-01T21:31:14.401Z,3.57
2023-05-01T21:33:45.499Z,7.03
2023-05-01T21:36:16.793Z,6.97
2023-05-01T21:38:46.110Z,3.57
2023-05-01T21:41:15.243Z,5.70
2023-05-01T21:43:42.440Z,4.23
2023-05-01T21:46:15.874Z,4.47
2023-05-01T21:48:43.359Z,6.70
2023-05-01T21:51:10.503Z,6.63
2023-05-01T21:53:41.373Z,6.30
2023-05-01T21:56:11.015Z,7.43
2023-05-01T21:58:38.957Z,5.30
2023-05-01T22:01:06.522Z,5.77
2023-05-01T22:03:34.352Z,5.70
2023-05-01T22:06:02.216Z,5.10
2023-05-01T22:08:29.146Z,7.00
2023-05-01T22:10:56.077Z,8.30
2023-05-01T22:13:24.280Z,7.43
2023-05-01T22:15:51.163Z,8.73
2023-05-01T22:18:19.465Z,9.70
2023-05-01T22:20:46.470Z,6.33
2023-05-01T22:23:14.230Z,7.33
2023-05-01T22:25:41.247Z,8.80
2023-05-01T22:28:08.729Z,7.53
2023-05-01T22:30:37.370Z,10.13
2023-05-01T22:33:04.543Z,6.53
2023-05-01T22:35:31.572Z,10.97
2023-05-01T22:37:58.507Z,8.37
2023-05-01T22:40:25.452Z,9.23
2023-05-01T22:42:52.314Z,7.83
2023-05-01T22:45:19.246Z,9.20
2023-05-01T22:47:47.478Z,9.07
2023-05-01T22:50:14.425Z,9.13
2023-05-01T22:52:41.332Z,8.77
2023-05-01T22:55:08.708Z,9.77
2023-05-01T22:57:35.692Z,8.53
2023-05-01T23:00:02.769Z,10.50
2023-05-01T23:02:30.363Z,12.70
2023-05-01T23:04:58.670Z,9.37
2023-05-01T23:07:25.556Z,12.83
2023-05-01T23:09:53.002Z,10.17
2023-05-01T23:12:25.518Z,9.77
2023-05-01T23:14:52.969Z,10.57
2023-05-01T23:17:19.928Z,11.43
2023-05-01T23:19:47.087Z,10.70
2023-05-01T23:22:15.396Z,12.37
2023-05-01T23:24:44.633Z,13.40
2023-05-01T23:27:14.424Z,11.63
2023-05-01T23:29:42.014Z,11.87
2023-05-01T23:32:17.896Z,16.20
2023-05-01T23:34:45.448Z,14.40
2023-05-01T23:37:12.352Z,16.83
2023-05-01T23:39:40.552Z,14.90
2023-05-01T23:42:07.535Z,16.27
2023-05-01T23:44:34.478Z,17.93
2023-05-01T23:47:01.508Z,20.07
2023-05-01T23:49:28.565Z,18.47
2023-05-01T23:51:55.738Z,17.43
2023-05-01T23:54:22.772Z,17.03
2023-05-01T23:56:51.047Z,18.93
2023-05-01T23:59:18.938Z,19.03
